首页
METAR-TAF:

METAR-TAF

机场 :

Wittman Regional Airport

Oshkosh, 威斯康辛州, 美国

纬度: 43-58-00N, 经度: 088-33-29W, 海拔: 246米

当前天气观测

该预报发布于7分钟前的07:45 UTC
风速13节,风向西转西北
温度 -8°C
湿度 79%
气压 1011 hPa
能見度: 16.1公里
少量云层高于1500英尺
散云层高于2500英尺
阴天层高于6000英尺

METAR: KOSH 100745Z AUTO 29013KT 10SM FEW015 SCT025 OVC060 M08/M11 A2984 RMK AO2 T10781111

时间: 01:52 (07:52 UTC)


TAF: 丢失

超过4000个机场的气象观测和天气预报(METAR&TAF报告)。

可查询的气象台以黄色和红色小点在地图上表示。

将鼠标移到小点上方,可查看气象台名称。

然后点击查看天气观测和预报。

如需切换地图:点击带黑十字的绿色按钮放大地图;点击带横线的绿色按钮缩小地图;或者点击绿色箭头查看邻近地区的地图。


METAR-TAF: